Time;durP1;ratioP1;P1;durP2;ratioP2;P2;SDS_P1;SDS_P2;PMS_P1;PMS_P2;Temp;Humidity;BMP_temperature;BMP_pressure;BME280_temperature;BME280_humidity;BME280_pressure;Samples;Min_cycle;Max_cycle;Signal;HPM_P1;HPM_P2
2022/08/26 00:01:47;;;;;;;8.75;4.05;;;;;;;24.39;59.69;101393.25;6213317;23;20079;-57
2022/08/26 00:04:13;;;;;;;9.48;4.22;;;;;;;24.39;59.54;101394.09;6212674;23;20000;-57
2022/08/26 00:06:39;;;;;;;9.75;4.90;;;;;;;24.32;60.06;101388.03;6214255;23;20004;-56
2022/08/26 00:09:05;;;;;;;12.57;5.28;;;;;;;24.37;59.51;101390.75;6214610;23;20087;-57
2022/08/26 00:11:31;;;;;;;8.88;5.47;;;;;;;24.36;59.94;101393.88;6212623;23;20035;-57
2022/08/26 00:13:56;;;;;;;7.30;5.22;;;;;;;24.39;59.27;101393.25;6213926;23;20043;-57
2022/08/26 00:16:23;;;;;;;10.77;6.07;;;;;;;24.33;59.68;101394.59;6210870;23;20013;-57
2022/08/26 00:18:48;;;;;;;10.88;5.75;;;;;;;24.27;59.95;101395.91;6213068;23;20062;-57
2022/08/26 00:21:14;;;;;;;9.02;5.72;;;;;;;24.20;60.15;101394.38;6214538;23;20028;-58
2022/08/26 00:23:39;;;;;;;8.15;4.88;;;;;;;24.30;59.63;101400.91;6213414;23;20016;-58
2022/08/26 00:26:05;;;;;;;11.82;5.43;;;;;;;24.29;59.74;101393.56;6214061;23;20005;-58
2022/08/26 00:28:30;;;;;;;12.02;5.82;;;;;;;24.17;60.09;101406.41;6213741;23;20000;-58
2022/08/26 00:30:56;;;;;;;10.63;5.10;;;;;;;24.24;59.49;101403.06;6213020;23;20020;-58
2022/08/26 00:33:21;;;;;;;10.70;5.50;;;;;;;24.23;59.88;101407.06;6213295;23;20012;-58
2022/08/26 00:35:47;;;;;;;12.48;5.93;;;;;;;24.14;60.06;101403.41;6214270;23;20011;-58
2022/08/26 00:38:13;;;;;;;12.27;5.75;;;;;;;24.14;60.23;101403.41;6212702;23;20048;-58
2022/08/26 00:40:46;;;;;;;11.73;5.40;;;;;;;24.07;60.44;101403.06;6214338;23;20079;-58
2022/08/26 00:43:11;;;;;;;11.60;5.32;;;;;;;24.13;59.93;101408.25;6213701;23;20036;-57
2022/08/26 00:45:42;;;;;;;10.77;5.22;;;;;;;24.10;60.23;101410.91;6213247;23;20013;-58
2022/08/26 00:48:09;;;;;;;10.88;4.80;;;;;;;24.18;59.63;101415.75;6212894;23;20391;-58
2022/08/26 00:50:39;;;;;;;12.13;5.20;;;;;;;24.07;60.36;101403.88;6213981;23;20008;-58
2022/08/26 00:53:20;;;;;;;13.65;5.15;;;;;;;24.01;60.13;101393.84;6212637;23;20016;-58
2022/08/26 00:56:12;;;;;;;10.10;5.07;;;;;;;24.03;60.12;101397.22;6213061;23;20011;-58
2022/08/26 00:58:41;;;;;;;10.10;4.60;;;;;;;24.12;59.93;101403.72;6176935;23;20464;-58
2022/08/26 01:01:07;;;;;;;10.13;4.70;;;;;;;24.15;59.95;101407.91;6213501;23;20012;-58
2022/08/26 01:03:34;;;;;;;8.70;4.40;;;;;;;24.05;60.42;101408.22;6213693;23;20080;-58
2022/08/26 01:06:00;;;;;;;11.82;5.22;;;;;;;23.88;61.01;101406.19;6212856;23;20005;-58
2022/08/26 01:08:26;;;;;;;10.40;4.55;;;;;;;24.05;60.18;101413.88;6214108;23;20048;-58
2022/08/26 01:10:53;;;;;;;6.88;3.88;;;;;;;24.09;59.85;101415.75;6213676;23;20008;-58
2022/08/26 01:13:19;;;;;;;8.35;4.43;;;;;;;24.00;60.51;101414.88;6212738;23;20005;-58
2022/08/26 01:15:48;;;;;;;12.98;4.55;;;;;;;24.06;60.12;101412.75;6213747;23;20009;-58
2022/08/26 01:18:14;;;;;;;9.73;4.47;;;;;;;23.96;60.49;101411.03;6213739;23;20016;-58
2022/08/26 01:21:05;;;;;;;10.65;4.05;;;;;;;24.07;59.46;101409.56;6213074;23;20008;-57
2022/08/26 01:23:38;;;;;;;12.55;4.10;;;;;;;24.01;60.02;101410.88;6212976;23;20012;-57
2022/08/26 01:26:08;;;;;;;12.15;4.22;;;;;;;23.96;60.55;101413.88;6213875;23;20071;-56
2022/08/26 01:28:35;;;;;;;10.10;4.32;;;;;;;23.83;60.43;101400.69;6212810;23;20009;-56
2022/08/26 01:31:04;;;;;;;13.35;4.07;;;;;;;23.93;59.96;101404.03;6213564;23;20036;-56
2022/08/26 01:33:37;;;;;;;8.73;4.25;;;;;;;23.84;60.65;101406.00;6213488;23;20005;-56
2022/08/26 01:36:03;;;;;;;10.43;4.05;;;;;;;23.79;60.70;101405.34;6212321;23;20001;-56
2022/08/26 01:38:28;;;;;;;5.80;3.88;;;;;;;23.88;60.56;101395.69;6213320;23;20004;-56
2022/08/26 01:40:54;;;;;;;11.32;4.07;;;;;;;23.87;59.87;101399.69;6212245;23;20055;-56
2022/08/26 01:43:23;;;;;;;10.02;3.72;;;;;;;23.84;60.39;101399.50;6213153;23;20011;-57
2022/08/26 01:45:50;;;;;;;10.73;3.92;;;;;;;23.75;60.50;101408.00;6213438;23;20044;-57
2022/08/26 01:48:19;;;;;;;6.95;3.47;;;;;;;23.79;60.58;101408.16;6213585;23;20035;-57
2022/08/26 01:50:46;;;;;;;9.15;3.63;;;;;;;23.86;60.27;101411.38;6215060;23;20604;-57
2022/08/26 01:53:15;;;;;;;8.00;3.05;;;;;;;23.85;59.92;101419.00;6215813;23;20008;-57
2022/08/26 01:55:44;;;;;;;11.05;3.20;;;;;;;23.80;60.09;101416.34;6213119;23;20013;-57
2022/08/26 01:58:35;;;;;;;7.35;3.38;;;;;;;23.74;60.48;101407.16;6214643;23;20028;-57
2022/08/26 02:01:02;;;;;;;10.77;3.20;;;;;;;23.74;60.53;101412.81;6197424;23;20039;-57
2022/08/26 02:03:28;;;;;;;10.05;2.90;;;;;;;23.68;60.43;101404.78;6214412;23;20286;-56
2022/08/26 02:06:03;;;;;;;6.70;2.70;;;;;;;23.74;60.36;101409.16;6215599;23;20162;-57
2022/08/26 02:08:42;;;;;;;4.75;2.70;;;;;;;23.74;60.19;101407.16;6215621;23;20004;-57
2022/08/26 02:11:08;;;;;;;6.30;2.60;;;;;;;23.67;60.60;101409.63;6214394;23;20011;-57
2022/08/26 02:13:39;;;;;;;5.57;2.15;;;;;;;23.69;60.57;101418.63;6215273;23;20001;-57
2022/08/26 02:16:05;;;;;;;9.50;2.10;;;;;;;23.66;60.53;101419.31;6214475;23;20016;-57
2022/08/26 02:18:33;;;;;;;10.43;2.55;;;;;;;23.64;60.50;101423.59;6215136;23;20012;-57
2022/08/26 02:20:59;;;;;;;7.30;2.33;;;;;;;23.65;60.23;101420.41;6215560;23;20054;-57
2022/08/26 02:23:24;;;;;;;7.30;2.25;;;;;;;23.69;60.13;101415.78;6213721;23;20364;-57
2022/08/26 02:26:07;;;;;;;10.77;2.20;;;;;;;23.56;60.54;101424.41;6215473;23;20012;-57
2022/08/26 02:28:40;;;;;;;6.82;2.00;;;;;;;23.57;60.14;101431.72;6213740;23;20005;-57
2022/08/26 02:31:06;;;;;;;5.00;2.20;;;;;;;23.65;60.10;101431.75;6213991;23;20001;-57
2022/08/26 02:33:31;;;;;;;7.75;1.88;;;;;;;23.59;60.02;101433.06;6214415;23;20154;-57
2022/08/26 02:35:57;;;;;;;8.52;2.35;;;;;;;23.63;60.12;101441.75;6215381;23;20032;-57
2022/08/26 02:38:22;;;;;;;9.30;2.10;;;;;;;23.53;60.63;101440.88;6213765;23;20001;-57
2022/08/26 02:40:47;;;;;;;6.25;1.83;;;;;;;23.62;59.91;101428.72;6214965;23;20055;-57
2022/08/26 02:43:13;;;;;;;6.60;2.13;;;;;;;23.59;60.00;101435.91;6214915;23;20447;-57
2022/08/26 02:45:39;;;;;;;7.80;1.77;;;;;;;23.58;60.21;101437.09;6214314;23;20440;-57
2022/08/26 02:48:15;;;;;;;6.90;1.88;;;;;;;23.61;59.77;101439.25;6214463;23;20020;-57
2022/08/26 02:50:41;;;;;;;4.55;1.73;;;;;;;23.53;60.49;101435.19;6214520;23;20316;-57
2022/08/26 02:53:06;;;;;;;6.95;1.60;;;;;;;23.57;60.16;101428.88;6214105;23;20000;-57
2022/08/26 02:55:32;;;;;;;6.35;1.70;;;;;;;23.60;60.11;101428.25;6215153;23;20091;-57
2022/08/26 02:57:58;;;;;;;4.07;1.90;;;;;;;23.51;60.27;101429.03;6213663;23;20012;-58
2022/08/26 03:00:24;;;;;;;7.20;2.00;;;;;;;23.45;60.11;101432.34;6212511;23;20484;-58
2022/08/26 03:02:50;;;;;;;5.35;1.52;;;;;;;23.54;60.10;101430.41;6214686;23;20008;-57
2022/08/26 03:05:18;;;;;;;5.50;1.63;;;;;;;23.55;60.18;101434.06;6213328;23;20034;-57
2022/08/26 03:07:44;;;;;;;4.65;1.63;;;;;;;23.56;60.21;101436.56;6215063;23;20001;-57
2022/08/26 03:10:11;;;;;;;5.72;2.22;;;;;;;23.50;59.95;101421.72;6214782;23;20007;-58
2022/08/26 03:12:37;;;;;;;7.30;2.25;;;;;;;23.51;60.27;101431.03;6213763;23;20012;-57
2022/08/26 03:15:04;;;;;;;7.28;2.58;;;;;;;23.43;60.32;101429.00;6214640;23;20004;-57
2022/08/26 03:17:29;;;;;;;7.45;2.22;;;;;;;23.47;60.44;101433.69;6213468;23;20001;-57
2022/08/26 03:19:55;;;;;;;4.60;2.17;;;;;;;23.46;60.31;101431.16;6213426;23;20101;-57
2022/08/26 03:22:20;;;;;;;5.88;2.10;;;;;;;23.56;59.91;101427.22;6214651;23;20004;-57
2022/08/26 03:24:45;;;;;;;11.30;2.80;;;;;;;23.43;60.40;101429.84;6214513;23;20051;-57
2022/08/26 03:27:11;;;;;;;6.47;2.78;;;;;;;23.37;61.01;101433.97;6212583;23;20028;-57
2022/08/26 03:32:22;;;;;;;5.85;2.60;;;;;;;23.45;60.44;101430.34;6214690;23;20067;-57
2022/08/26 03:34:47;;;;;;;8.65;2.92;;;;;;;23.42;61.10;101433.00;6213499;23;20008;-57
2022/08/26 03:37:13;;;;;;;5.63;2.25;;;;;;;23.45;60.68;101438.00;6214338;23;20035;-57
2022/08/26 03:39:38;;;;;;;9.40;2.50;;;;;;;23.37;61.05;101439.63;6213117;23;20009;-57
2022/08/26 03:42:05;;;;;;;10.68;3.42;;;;;;;23.26;61.28;101433.44;6213476;23;20005;-57
2022/08/26 03:44:30;;;;;;;7.13;2.42;;;;;;;23.28;61.44;101427.44;6213942;23;20036;-57
2022/08/26 03:46:55;;;;;;;8.55;2.33;;;;;;;23.33;60.96;101434.94;6214444;23;20091;-57
2022/08/26 03:49:21;;;;;;;5.20;2.10;;;;;;;23.37;61.07;101441.63;6212295;23;20012;-57
2022/08/26 03:51:46;;;;;;;6.00;2.20;;;;;;;23.31;60.87;101432.44;6214120;23;20008;-57
2022/08/26 03:54:11;;;;;;;7.40;2.53;;;;;;;23.28;61.46;101444.44;6214297;23;20131;-57
2022/08/26 03:56:37;;;;;;;7.45;2.42;;;;;;;23.26;61.25;101446.72;6213490;23;20001;-57
2022/08/26 03:59:04;;;;;;;5.93;2.38;;;;;;;23.32;60.98;101436.94;6214234;23;20417;-57
2022/08/26 04:01:29;;;;;;;6.60;2.20;;;;;;;23.15;61.41;101434.88;6212105;23;20067;-57
2022/08/26 04:03:58;;;;;;;5.35;2.28;;;;;;;23.17;61.49;101440.19;6213340;23;20059;-57
2022/08/26 04:06:37;;;;;;;8.90;2.85;;;;;;;23.20;61.11;101445.22;6214128;23;20022;-57
2022/08/26 04:09:08;;;;;;;4.55;1.83;;;;;;;23.16;61.56;101439.38;6212932;23;20076;-58
2022/08/26 04:11:34;;;;;;;7.10;2.63;;;;;;;23.06;61.82;101442.44;6214170;23;20004;-57
2022/08/26 04:14:03;;;;;;;7.57;2.25;;;;;;;23.16;61.59;101436.53;6212996;23;20004;-57
2022/08/26 04:16:29;;;;;;;7.00;2.42;;;;;;;23.19;61.18;101444.38;6213717;23;20031;-57
2022/08/26 04:18:56;;;;;;;8.43;2.20;;;;;;;23.13;61.65;101440.00;6213919;23;20083;-57
2022/08/26 04:21:22;;;;;;;5.32;1.80;;;;;;;23.19;61.59;101446.38;6213458;23;20320;-57
2022/08/26 04:23:49;;;;;;;8.40;2.50;;;;;;;23.15;61.54;101440.53;6212921;23;20005;-57
2022/08/26 04:26:19;;;;;;;5.70;1.95;;;;;;;23.20;61.28;101436.72;6212374;23;20463;-57
2022/08/26 04:28:45;;;;;;;5.32;1.67;;;;;;;23.16;61.31;101436.53;6212431;23;20576;-57
2022/08/26 04:31:13;;;;;;;9.07;1.80;;;;;;;23.19;61.37;101437.91;6212556;23;20080;-57
2022/08/26 04:33:39;;;;;;;6.28;1.85;;;;;;;23.21;61.14;101441.22;6212143;23;20011;-57
2022/08/26 04:36:04;;;;;;;8.27;2.25;;;;;;;22.97;61.95;101433.91;6213834;23;20421;-57
2022/08/26 04:38:30;;;;;;;6.32;1.92;;;;;;;23.07;61.53;101430.00;6212842;23;20150;-57
2022/08/26 04:40:56;;;;;;;6.35;1.98;;;;;;;23.11;61.54;101435.81;6213422;23;20007;-57
2022/08/26 04:43:24;;;;;;;8.82;2.42;;;;;;;23.05;61.58;101437.13;6213551;23;20078;-57
2022/08/26 04:45:50;;;;;;;4.03;1.70;;;;;;;23.10;61.41;101440.66;6212701;23;20475;-57
2022/08/26 04:48:15;;;;;;;9.57;2.30;;;;;;;23.05;61.74;101446.44;6213056;23;20087;-57
2022/08/26 04:50:40;;;;;;;8.60;2.08;;;;;;;23.04;61.54;101447.63;6211648;23;20001;-57
2022/08/26 04:53:05;;;;;;;4.78;1.95;;;;;;;23.10;61.42;101451.13;6214161;23;20009;-57
2022/08/26 04:55:31;;;;;;;5.93;2.25;;;;;;;23.08;61.62;101444.97;6213222;23;20054;-57
2022/08/26 04:57:56;;;;;;;6.22;1.90;;;;;;;23.03;61.50;101440.28;6213004;23;20009;-57
2022/08/26 05:00:22;;;;;;;6.70;1.95;;;;;;;23.08;61.54;101444.97;6211588;23;20385;-57
2022/08/26 05:02:47;;;;;;;4.38;1.52;;;;;;;23.12;61.55;101441.19;6212036;23;20005;-57
2022/08/26 05:05:12;;;;;;;9.40;2.25;;;;;;;23.01;61.71;101448.25;6212761;23;20036;-58
2022/08/26 05:07:41;;;;;;;4.53;1.80;;;;;;;23.05;61.49;101448.44;6211969;23;20417;-57
2022/08/26 05:10:07;;;;;;;6.10;1.80;;;;;;;23.02;61.51;101452.75;6213348;23;20023;-57
2022/08/26 05:12:33;;;;;;;6.32;2.03;;;;;;;23.01;61.85;101456.75;6212089;23;20000;-57
2022/08/26 05:14:59;;;;;;;5.65;1.70;;;;;;;23.00;61.71;101452.25;6212758;23;20109;-57
2022/08/26 05:17:27;;;;;;;6.78;2.05;;;;;;;23.05;61.52;101454.13;6213324;23;20007;-57
2022/08/26 05:19:52;;;;;;;6.93;1.98;;;;;;;23.00;61.85;101450.25;6214011;23;20001;-57
2022/08/26 05:22:20;;;;;;;6.50;1.83;;;;;;;23.01;61.35;101451.91;6214872;23;20090;-57
2022/08/26 05:24:46;;;;;;;6.75;1.80;;;;;;;22.98;61.69;101446.06;6215086;23;20022;-57
2022/08/26 05:27:12;;;;;;;4.60;1.50;;;;;;;23.01;61.63;101453.91;6215163;23;20388;-57
2022/08/26 05:29:38;;;;;;;6.93;1.80;;;;;;;22.93;61.80;101451.88;6214165;23;20043;-57
2022/08/26 05:32:04;;;;;;;5.75;1.80;;;;;;;22.80;62.49;101453.59;6213922;23;20380;-57
2022/08/26 05:34:29;;;;;;;3.90;1.60;;;;;;;22.90;62.29;101447.66;6214030;23;20413;-57
2022/08/26 05:36:54;;;;;;;7.25;1.80;;;;;;;22.88;62.02;101447.16;6215441;23;20000;-57
2022/08/26 05:39:22;;;;;;;6.40;1.70;;;;;;;22.89;62.00;101453.63;6215193;23;20004;-57
2022/08/26 05:41:47;;;;;;;6.55;1.58;;;;;;;22.94;62.00;101456.38;6215016;23;20003;-57
2022/08/26 05:44:14;;;;;;;6.85;1.85;;;;;;;22.98;62.35;101468.72;6215385;23;20001;-57
2022/08/26 05:46:40;;;;;;;5.25;1.55;;;;;;;23.00;62.00;101467.25;6214455;23;20005;-57
2022/08/26 05:49:06;;;;;;;7.57;1.65;;;;;;;22.95;62.20;101469.34;6211494;23;20424;-57
2022/08/26 05:51:33;;;;;;;6.18;2.00;;;;;;;22.92;62.16;101470.03;6211878;23;20008;-57
2022/08/26 05:58:10;;;;;;;4.10;1.48;;;;;;;23.10;61.50;101476.63;6206860;23;20016;-62
2022/08/26 06:46:37;;;;;;;;;;;;;;;;;;;;;
2022/08/26 07:11:18;;;;;;;;;;;;;;;;;;;;;
2022/08/26 09:05:40;;;;;;;;;;;;;;;;;;;;;
2022/08/26 09:08:28;;;;;;;6.47;1.33;;;;;;;22.82;59.83;101570.13;6202272;23;20491;-61
2022/08/26 09:11:25;;;;;;;4.45;1.10;;;;;;;22.84;59.72;101570.66;6209052;23;20377;-60
2022/08/26 09:14:58;;;;;;;4.28;1.40;;;;;;;22.96;59.80;101572.97;6157271;23;20005;-62
2022/08/26 09:18:12;;;;;;;3.47;1.13;;;;;;;23.07;59.60;101573.53;6168000;23;20092;-60
2022/08/26 09:35:26;;;;;;;;;;;;;;;;;;;;;
2022/08/26 09:42:09;;;;;;;;;;;;;;;;;;;;;
2022/08/26 10:07:22;;;;;;;7.63;1.10;;;;;;;23.08;58.97;101586.56;5918725;24;20040;-62
2022/08/26 10:17:31;;;;;;;;;;;;;;;;;;;;;
2022/08/26 10:33:30;;;;;;;5.80;1.40;;;;;;;23.08;58.74;101572.41;5880102;24;20017;-62
2022/08/26 11:04:09;;;;;;;7.40;1.30;;;;;;;23.13;58.33;101587.25;6056636;23;20089;-60
2022/08/26 11:11:30;;;;;;;;;;;;;;;;;;;;;
2022/08/26 11:14:42;;;;;;;10.00;1.40;;;;;;;22.94;58.60;101586.59;6114847;23;20038;-63
2022/08/26 11:21:38;;;;;;;5.30;1.05;;;;;;;23.07;58.19;101590.53;5977331;23;20012;-61
2022/08/26 11:28:25;;;;;;;5.55;1.20;;;;;;;23.04;58.20;101586.34;5941270;24;20662;-62
2022/08/26 11:39:27;;;;;;;;;;;;;;;;;;;;;
2022/08/26 11:42:59;;;;;;;7.93;1.38;;;;;;;23.12;58.47;101588.44;5949832;23;20058;-60
2022/08/26 11:49:36;;;;;;;6.90;1.40;;;;;;;22.94;58.31;101590.25;6102980;23;20009;-60
2022/08/26 12:13:56;;;;;;;3.72;0.98;;;;;;;22.94;58.60;101598.75;6145490;23;20044;-62
2022/08/26 12:17:09;;;;;;;6.03;1.25;;;;;;;22.91;58.40;101593.75;6014617;23;20355;-59
2022/08/26 12:23:27;;;;;;;7.53;1.00;;;;;;;22.92;58.76;101603.06;6090211;23;20081;-63
2022/08/26 12:34:28;;;;;;;6.18;1.00;;;;;;;22.97;58.44;101591.63;5941554;23;20026;-61
2022/08/26 12:37:40;;;;;;;4.75;1.15;;;;;;;22.95;58.54;101589.13;5939351;23;20013;-62
2022/08/26 12:40:56;;;;;;;4.53;1.05;;;;;;;22.85;58.37;101597.81;5993735;23;20086;-59
2022/08/26 12:44:02;;;;;;;5.18;1.00;;;;;;;22.95;58.33;101600.44;6001363;23;20007;-64
2022/08/26 12:47:15;;;;;;;4.75;1.00;;;;;;;22.93;58.36;101596.25;6002877;23;20122;-60
2022/08/26 13:14:47;;;;;;;4.15;0.93;;;;;;;23.09;57.43;101591.88;5978749;23;20086;-60
2022/08/26 13:17:35;;;;;;;4.38;1.10;;;;;;;22.93;57.82;101588.59;5990831;23;20020;-61
2022/08/26 13:20:43;;;;;;;2.45;1.00;;;;;;;23.03;57.49;101585.53;5999219;23;20015;-63
2022/08/26 13:30:49;;;;;;;4.38;0.93;;;;;;;22.98;57.75;101579.97;6055774;23;20458;-61
2022/08/26 13:33:50;;;;;;;;;;;;;;;;;;;;;
2022/08/26 13:36:53;;;;;;;;;;;;;;;;;;;;;
2022/08/26 13:40:16;;;;;;;3.33;0.93;;;;;;;22.98;57.19;101570.63;6105881;23;20336;-60
2022/08/26 13:43:24;;;;;;;4.30;0.98;;;;;;;22.84;57.41;101581.16;6034068;23;20126;-61
2022/08/26 13:49:48;;;;;;;;;;;;;;;;;;;;;
2022/08/26 13:59:42;;;;;;;5.03;1.35;;;;;;;22.75;58.89;101573.41;6004913;23;20020;-60
2022/08/26 14:02:36;;;;;;;10.38;1.67;;;;;;;22.71;61.25;101577.16;5992898;23;20012;-63
2022/08/26 14:05:53;;;;;;;;;;;;;;;;;;;;;
2022/08/26 14:08:33;;;;;;;7.28;1.75;;;;;;;22.57;62.85;101576.38;6176654;23;20072;-60
2022/08/26 14:21:59;;;;;;;6.20;1.55;;;;;;;22.50;63.71;101557.84;6082456;23;20018;-59
2022/08/26 14:24:47;;;;;;;10.82;2.20;;;;;;;22.50;63.02;101557.00;6087687;23;20010;-60
2022/08/26 14:27:49;;;;;;;17.48;3.50;;;;;;;22.49;64.16;101572.31;6064099;23;20074;-61
2022/08/26 14:31:14;;;;;;;5.32;1.80;;;;;;;22.62;63.53;101577.09;6201979;23;20017;-62
2022/08/26 14:37:55;;;;;;;7.85;2.20;;;;;;;22.62;64.35;101564.94;6061893;23;20097;-64
2022/08/26 14:41:13;;;;;;;8.93;3.00;;;;;;;22.63;63.97;101560.94;5996187;23;20019;-61
2022/08/26 14:45:36;;;;;;;;;;;;;;;;;;;;;
2022/08/26 14:48:25;;;;;;;;;;;;;;;;;;;;;
2022/08/26 14:51:27;;;;;;;5.38;1.85;;;;;;;22.73;64.35;101550.25;6051317;23;20085;-62
2022/08/26 14:54:36;;;;;;;3.40;2.10;;;;;;;22.72;64.67;101551.41;6119906;23;20089;-59
2022/08/26 14:57:45;;;;;;;7.82;2.28;;;;;;;22.68;65.18;101550.38;6011189;23;20019;-61
2022/08/26 15:00:55;;;;;;;6.93;2.05;;;;;;;22.75;65.11;101556.44;5948627;24;20016;-60
2022/08/26 15:04:00;;;;;;;5.13;2.72;;;;;;;22.68;66.01;101549.53;5947733;24;20412;-61
2022/08/26 15:11:17;;;;;;;5.10;1.70;;;;;;;22.87;64.82;101549.34;5966274;24;20384;-61
2022/08/26 15:18:04;;;;;;;6.45;2.22;;;;;;;22.85;65.82;101546.84;5990057;23;20747;-61
2022/08/26 15:27:52;;;;;;;8.15;2.35;;;;;;;22.83;65.77;101537.00;6034320;23;20022;-60
2022/08/26 15:31:33;;;;;;;;;;;;;;;;;;;;;
2022/08/26 15:38:13;;;;;;;6.85;1.60;;;;;;;22.81;64.75;101537.31;5974326;24;20028;-60
2022/08/26 15:49:01;;;;;;;6.35;1.90;;;;;;;22.88;63.59;101565.19;5929339;24;20077;-60
2022/08/26 16:03:19;;;;;;;;;;;;;;;;;;;;;
2022/08/26 16:06:48;;;;;;;;;;;;;;;;;;;;;
2022/08/26 16:17:04;;;;;;;;;;;;;;;;;;;;;
2022/08/26 16:23:33;;;;;;;6.63;1.85;;;;;;;22.65;62.00;101531.19;6032093;23;20067;-60
2022/08/26 16:36:30;;;;;;;3.72;1.40;;;;;;;22.60;61.70;101531.31;6149497;23;20045;-62
2022/08/26 16:39:28;;;;;;;7.50;1.70;;;;;;;22.56;61.85;101541.59;6149162;23;20049;-59
2022/08/26 16:46:26;;;;;;;;;;;;;;;;;;;;;
2022/08/26 17:03:28;;;;;;;;;;;;;;;;;;;;;
2022/08/26 17:10:26;;;;;;;5.93;1.60;;;;;;;22.46;60.62;101541.81;5950632;23;20012;-58
2022/08/26 17:13:39;;;;;;;6.38;1.80;;;;;;;22.45;60.37;101546.63;6014887;23;20188;-59
2022/08/26 17:58:23;;;;;;;6.80;1.60;;;;;;;22.23;60.33;101564.34;5944252;23;20410;-59
2022/08/26 18:46:18;;;;;;;;;;;;;;;;;;;;;
2022/08/26 18:56:36;;;;;;;;;;;;;;;;;;;;;
2022/08/26 19:00:26;;;;;;;3.92;1.40;;;;;;;22.09;59.60;101610.72;6086760;23;20093;-61
2022/08/26 19:03:27;;;;;;;;;;;;;;;;;;;;;
2022/08/26 19:17:09;;;;;;;4.05;1.38;;;;;;;21.95;58.78;101608.69;6002202;23;20351;-59
2022/08/26 19:20:19;;;;;;;3.83;1.30;;;;;;;21.94;58.93;101612.69;6009756;23;20065;-61
2022/08/26 19:48:23;;;;;;;;;;;;;;;;;;;;;
2022/08/26 20:13:22;;;;;;;;;;;;;;;;;;;;;
2022/08/26 20:16:39;;;;;;;;;;;;;;;;;;;;;
2022/08/26 20:23:00;;;;;;;5.70;1.48;;;;;;;21.70;57.73;101632.63;6087224;23;20113;-59
2022/08/26 20:28:58;;;;;;;4.30;1.50;;;;;;;21.67;57.46;101632.41;6082646;23;20033;-60
2022/08/26 20:36:00;;;;;;;;;;;;;;;;;;;;;
2022/08/26 21:04:15;;;;;;;;;;;;;;;;;;;;;
2022/08/26 21:07:26;;;;;;;4.72;1.60;;;;;;;21.50;56.74;101644.28;5696587;24;20461;-59
2022/08/26 21:10:31;;;;;;;3.97;1.60;;;;;;;21.45;56.45;101644.34;5885950;24;20022;-59
2022/08/26 21:17:30;;;;;;;3.63;1.40;;;;;;;21.45;56.64;101647.16;5804098;24;20833;-60
2022/08/26 21:27:34;;;;;;;7.15;1.88;;;;;;;21.39;56.45;101637.13;5935934;24;20085;-59
2022/08/26 21:31:03;;;;;;;6.63;1.80;;;;;;;21.36;56.18;101640.56;5944750;24;20023;-59
2022/08/26 21:34:39;;;;;;;;;;;;;;;;;;;;;
2022/08/26 21:44:45;;;;;;;;;;;;;;;;;;;;;
2022/08/26 22:01:44;;;;;;;;;;;;;;;21.41;56.13;101637.63;5915615;24;20024;-59
2022/08/26 22:19:11;;;;;;;;;;;;;;;;;;;;;
2022/08/26 22:43:13;;;;;;;3.33;1.80;;;;;;;20.83;56.13;101652.88;5693693;25;20039;-61
2022/08/26 22:47:07;;;;;;;;;;;;;;;;;;;;;
2022/08/26 22:54:20;;;;;;;;;;;;;;;;;;;;;
2022/08/26 23:09:25;;;;;;;4.53;1.98;;;;;;;20.62;56.27;101659.91;5783065;24;20022;-60
2022/08/26 23:13:12;;;;;;;;;;;;;;;;;;;;;
2022/08/26 23:16:36;;;;;;;5.47;2.10;;;;;;;20.55;56.39;101652.69;5740183;24;20537;-60
2022/08/26 23:19:44;;;;;;;7.20;1.65;;;;;;;20.46;56.48;101648.78;5724318;24;20050;-60
2022/08/26 23:41:46;;;;;;;7.28;2.35;;;;;;;20.20;56.65;101647.41;5842310;24;20408;-59
2022/08/26 23:48:10;;;;;;;6.10;2.08;;;;;;;20.18;56.58;101642.06;5742580;24;20021;-59
